sensor_id;sensor_type;location;lat;lon;timestamp;P1;durP1;ratioP1;P2;durP2;ratioP2
28762;SDS011;15918;51.270;6.522;2022-07-22T00:00:18;8.80;;;4.18;;
28762;SDS011;15918;51.270;6.522;2022-07-22T00:02:44;9.68;;;4.50;;
28762;SDS011;15918;51.270;6.522;2022-07-22T00:05:09;10.00;;;4.60;;
28762;SDS011;15918;51.270;6.522;2022-07-22T00:07:36;9.30;;;4.90;;
28762;SDS011;15918;51.270;6.522;2022-07-22T00:10:03;6.88;;;4.20;;
28762;SDS011;15918;51.270;6.522;2022-07-22T00:12:30;8.30;;;4.10;;
28762;SDS011;15918;51.270;6.522;2022-07-22T00:14:56;8.20;;;4.47;;
28762;SDS011;15918;51.270;6.522;2022-07-22T00:17:21;9.93;;;4.78;;
28762;SDS011;15918;51.270;6.522;2022-07-22T00:19:47;12.02;;;4.25;;
28762;SDS011;15918;51.270;6.522;2022-07-22T00:22:12;10.57;;;4.57;;
28762;SDS011;15918;51.270;6.522;2022-07-22T00:24:38;16.00;;;5.07;;
28762;SDS011;15918;51.270;6.522;2022-07-22T00:27:04;12.05;;;4.22;;
28762;SDS011;15918;51.270;6.522;2022-07-22T00:29:29;7.18;;;4.55;;
28762;SDS011;15918;51.270;6.522;2022-07-22T00:31:55;8.25;;;4.40;;
28762;SDS011;15918;51.270;6.522;2022-07-22T00:34:20;9.32;;;4.55;;
28762;SDS011;15918;51.270;6.522;2022-07-22T00:36:46;9.32;;;4.35;;
28762;SDS011;15918;51.270;6.522;2022-07-22T00:39:11;10.77;;;5.28;;
28762;SDS011;15918;51.270;6.522;2022-07-22T00:41:37;6.60;;;4.20;;
28762;SDS011;15918;51.270;6.522;2022-07-22T00:44:04;10.18;;;5.15;;
28762;SDS011;15918;51.270;6.522;2022-07-22T00:46:31;11.30;;;4.68;;
28762;SDS011;15918;51.270;6.522;2022-07-22T00:48:59;7.60;;;4.72;;
28762;SDS011;15918;51.270;6.522;2022-07-22T00:51:25;8.50;;;4.22;;
28762;SDS011;15918;51.270;6.522;2022-07-22T00:53:52;8.98;;;4.43;;
28762;SDS011;15918;51.270;6.522;2022-07-22T00:56:19;8.32;;;4.53;;
28762;SDS011;15918;51.270;6.522;2022-07-22T00:58:46;11.82;;;5.22;;
28762;SDS011;15918;51.270;6.522;2022-07-22T01:01:13;10.32;;;4.95;;
28762;SDS011;15918;51.270;6.522;2022-07-22T01:03:39;7.95;;;4.40;;
28762;SDS011;15918;51.270;6.522;2022-07-22T01:06:05;10.00;;;4.82;;
28762;SDS011;15918;51.270;6.522;2022-07-22T01:08:32;9.82;;;5.18;;
28762;SDS011;15918;51.270;6.522;2022-07-22T01:11:11;8.48;;;5.15;;
28762;SDS011;15918;51.270;6.522;2022-07-22T01:13:42;10.85;;;4.60;;
28762;SDS011;15918;51.270;6.522;2022-07-22T01:16:08;9.88;;;5.40;;
28762;SDS011;15918;51.270;6.522;2022-07-22T01:18:35;11.48;;;4.65;;
28762;SDS011;15918;51.270;6.522;2022-07-22T01:21:02;9.23;;;4.68;;
28762;SDS011;15918;51.270;6.522;2022-07-22T01:23:28;7.80;;;4.57;;
28762;SDS011;15918;51.270;6.522;2022-07-22T01:25:54;10.48;;;5.82;;
28762;SDS011;15918;51.270;6.522;2022-07-22T01:28:20;10.32;;;5.05;;
28762;SDS011;15918;51.270;6.522;2022-07-22T01:30:46;10.57;;;4.57;;
28762;SDS011;15918;51.270;6.522;2022-07-22T01:33:12;8.20;;;4.88;;
28762;SDS011;15918;51.270;6.522;2022-07-22T01:35:37;10.88;;;5.18;;
28762;SDS011;15918;51.270;6.522;2022-07-22T01:38:03;11.50;;;4.38;;
28762;SDS011;15918;51.270;6.522;2022-07-22T01:40:28;12.38;;;4.82;;
28762;SDS011;15918;51.270;6.522;2022-07-22T01:42:54;13.10;;;4.53;;
28762;SDS011;15918;51.270;6.522;2022-07-22T01:45:19;9.27;;;4.32;;
28762;SDS011;15918;51.270;6.522;2022-07-22T01:47:45;8.02;;;4.35;;
28762;SDS011;15918;51.270;6.522;2022-07-22T01:50:11;6.85;;;4.38;;
28762;SDS011;15918;51.270;6.522;2022-07-22T01:52:37;9.60;;;4.22;;
28762;SDS011;15918;51.270;6.522;2022-07-22T01:55:05;7.68;;;4.22;;
28762;SDS011;15918;51.270;6.522;2022-07-22T01:57:31;7.55;;;3.88;;
28762;SDS011;15918;51.270;6.522;2022-07-22T01:59:57;6.43;;;4.20;;
28762;SDS011;15918;51.270;6.522;2022-07-22T02:02:22;11.20;;;4.30;;
28762;SDS011;15918;51.270;6.522;2022-07-22T02:04:48;6.60;;;3.78;;
28762;SDS011;15918;51.270;6.522;2022-07-22T02:07:14;8.50;;;4.30;;
28762;SDS011;15918;51.270;6.522;2022-07-22T02:09:39;9.45;;;3.45;;
28762;SDS011;15918;51.270;6.522;2022-07-22T02:12:05;9.90;;;4.15;;
28762;SDS011;15918;51.270;6.522;2022-07-22T02:14:31;7.72;;;3.17;;
28762;SDS011;15918;51.270;6.522;2022-07-22T02:16:57;7.20;;;3.78;;
28762;SDS011;15918;51.270;6.522;2022-07-22T02:19:22;7.25;;;3.80;;
28762;SDS011;15918;51.270;6.522;2022-07-22T02:21:48;7.32;;;3.70;;
28762;SDS011;15918;51.270;6.522;2022-07-22T02:24:14;7.70;;;2.90;;
28762;SDS011;15918;51.270;6.522;2022-07-22T02:26:39;6.68;;;3.63;;
28762;SDS011;15918;51.270;6.522;2022-07-22T02:29:05;12.18;;;4.10;;
28762;SDS011;15918;51.270;6.522;2022-07-22T02:31:31;9.90;;;4.43;;
28762;SDS011;15918;51.270;6.522;2022-07-22T02:33:56;7.50;;;3.30;;
28762;SDS011;15918;51.270;6.522;2022-07-22T02:36:22;9.10;;;3.88;;
28762;SDS011;15918;51.270;6.522;2022-07-22T02:38:48;6.10;;;3.55;;
28762;SDS011;15918;51.270;6.522;2022-07-22T02:41:13;9.52;;;4.00;;
28762;SDS011;15918;51.270;6.522;2022-07-22T02:43:39;7.35;;;3.40;;
28762;SDS011;15918;51.270;6.522;2022-07-22T02:46:05;8.52;;;4.63;;
28762;SDS011;15918;51.270;6.522;2022-07-22T02:48:30;11.48;;;4.05;;
28762;SDS011;15918;51.270;6.522;2022-07-22T02:50:56;8.52;;;3.75;;
28762;SDS011;15918;51.270;6.522;2022-07-22T02:53:22;11.45;;;4.78;;
28762;SDS011;15918;51.270;6.522;2022-07-22T02:55:47;10.10;;;4.82;;
28762;SDS011;15918;51.270;6.522;2022-07-22T02:58:13;8.55;;;4.65;;
28762;SDS011;15918;51.270;6.522;2022-07-22T03:00:39;11.85;;;4.60;;
28762;SDS011;15918;51.270;6.522;2022-07-22T03:03:04;7.93;;;3.97;;
28762;SDS011;15918;51.270;6.522;2022-07-22T03:05:30;15.05;;;4.55;;
28762;SDS011;15918;51.270;6.522;2022-07-22T03:07:56;5.40;;;3.80;;
28762;SDS011;15918;51.270;6.522;2022-07-22T03:10:21;7.32;;;4.13;;
28762;SDS011;15918;51.270;6.522;2022-07-22T03:12:47;9.07;;;4.03;;
28762;SDS011;15918;51.270;6.522;2022-07-22T03:15:13;9.50;;;4.60;;
28762;SDS011;15918;51.270;6.522;2022-07-22T03:17:38;8.73;;;4.25;;
28762;SDS011;15918;51.270;6.522;2022-07-22T03:20:08;10.50;;;4.75;;
28762;SDS011;15918;51.270;6.522;2022-07-22T03:22:35;7.47;;;4.38;;
28762;SDS011;15918;51.270;6.522;2022-07-22T03:25:01;6.10;;;3.70;;
28762;SDS011;15918;51.270;6.522;2022-07-22T03:27:27;7.07;;;4.00;;
28762;SDS011;15918;51.270;6.522;2022-07-22T03:29:53;10.88;;;4.32;;
28762;SDS011;15918;51.270;6.522;2022-07-22T03:32:18;9.77;;;4.85;;
28762;SDS011;15918;51.270;6.522;2022-07-22T03:34:44;8.27;;;4.60;;
28762;SDS011;15918;51.270;6.522;2022-07-22T03:37:10;7.75;;;4.32;;
28762;SDS011;15918;51.270;6.522;2022-07-22T03:39:35;8.43;;;4.28;;
28762;SDS011;15918;51.270;6.522;2022-07-22T03:42:01;8.73;;;4.25;;
28762;SDS011;15918;51.270;6.522;2022-07-22T03:44:27;9.15;;;4.35;;
28762;SDS011;15918;51.270;6.522;2022-07-22T03:46:53;7.55;;;4.55;;
28762;SDS011;15918;51.270;6.522;2022-07-22T03:49:19;10.55;;;4.47;;
28762;SDS011;15918;51.270;6.522;2022-07-22T03:51:44;10.68;;;4.93;;
28762;SDS011;15918;51.270;6.522;2022-07-22T03:54:10;8.38;;;4.35;;
28762;SDS011;15918;51.270;6.522;2022-07-22T03:56:36;11.50;;;4.60;;
28762;SDS011;15918;51.270;6.522;2022-07-22T03:59:01;6.88;;;4.25;;
28762;SDS011;15918;51.270;6.522;2022-07-22T04:01:27;8.48;;;4.05;;
28762;SDS011;15918;51.270;6.522;2022-07-22T04:03:53;7.60;;;3.63;;
28762;SDS011;15918;51.270;6.522;2022-07-22T04:06:18;5.30;;;3.47;;
28762;SDS011;15918;51.270;6.522;2022-07-22T04:08:44;6.57;;;3.22;;
28762;SDS011;15918;51.270;6.522;2022-07-22T04:11:09;6.53;;;2.85;;
28762;SDS011;15918;51.270;6.522;2022-07-22T04:13:35;10.95;;;3.33;;
28762;SDS011;15918;51.270;6.522;2022-07-22T04:16:00;6.60;;;2.88;;
28762;SDS011;15918;51.270;6.522;2022-07-22T04:18:26;7.10;;;2.47;;
28762;SDS011;15918;51.270;6.522;2022-07-22T04:20:52;7.18;;;2.72;;
28762;SDS011;15918;51.270;6.522;2022-07-22T04:23:17;4.93;;;2.47;;
28762;SDS011;15918;51.270;6.522;2022-07-22T04:25:43;5.90;;;2.22;;
28762;SDS011;15918;51.270;6.522;2022-07-22T04:28:09;6.75;;;2.30;;
28762;SDS011;15918;51.270;6.522;2022-07-22T04:30:35;6.22;;;2.60;;
28762;SDS011;15918;51.270;6.522;2022-07-22T04:33:01;6.13;;;2.63;;
28762;SDS011;15918;51.270;6.522;2022-07-22T04:35:26;5.28;;;2.75;;
28762;SDS011;15918;51.270;6.522;2022-07-22T04:37:52;4.45;;;2.35;;
28762;SDS011;15918;51.270;6.522;2022-07-22T04:40:18;6.63;;;2.70;;
28762;SDS011;15918;51.270;6.522;2022-07-22T04:42:44;6.95;;;2.40;;
28762;SDS011;15918;51.270;6.522;2022-07-22T04:45:10;7.00;;;2.72;;
28762;SDS011;15918;51.270;6.522;2022-07-22T04:47:36;6.50;;;2.28;;
28762;SDS011;15918;51.270;6.522;2022-07-22T04:50:02;5.95;;;2.83;;
28762;SDS011;15918;51.270;6.522;2022-07-22T04:52:28;5.53;;;2.05;;
28762;SDS011;15918;51.270;6.522;2022-07-22T04:54:54;8.18;;;2.67;;
28762;SDS011;15918;51.270;6.522;2022-07-22T04:57:19;6.72;;;2.47;;
28762;SDS011;15918;51.270;6.522;2022-07-22T04:59:45;6.22;;;2.72;;
28762;SDS011;15918;51.270;6.522;2022-07-22T05:02:11;6.60;;;2.63;;
28762;SDS011;15918;51.270;6.522;2022-07-22T05:04:36;7.63;;;2.70;;
28762;SDS011;15918;51.270;6.522;2022-07-22T05:07:02;9.98;;;2.95;;
28762;SDS011;15918;51.270;6.522;2022-07-22T05:09:28;4.95;;;2.15;;
28762;SDS011;15918;51.270;6.522;2022-07-22T05:11:53;10.20;;;2.92;;
28762;SDS011;15918;51.270;6.522;2022-07-22T05:14:19;3.72;;;2.13;;
28762;SDS011;15918;51.270;6.522;2022-07-22T05:16:45;8.52;;;2.47;;
28762;SDS011;15918;51.270;6.522;2022-07-22T05:19:11;7.20;;;2.40;;
28762;SDS011;15918;51.270;6.522;2022-07-22T05:21:36;6.05;;;2.80;;
28762;SDS011;15918;51.270;6.522;2022-07-22T05:24:02;5.15;;;2.28;;
28762;SDS011;15918;51.270;6.522;2022-07-22T05:26:28;7.13;;;2.50;;
28762;SDS011;15918;51.270;6.522;2022-07-22T05:28:56;5.53;;;2.35;;
28762;SDS011;15918;51.270;6.522;2022-07-22T05:31:21;6.70;;;2.35;;
28762;SDS011;15918;51.270;6.522;2022-07-22T05:33:47;6.07;;;2.10;;
28762;SDS011;15918;51.270;6.522;2022-07-22T05:36:13;6.25;;;2.58;;
28762;SDS011;15918;51.270;6.522;2022-07-22T05:38:38;5.00;;;2.53;;
28762;SDS011;15918;51.270;6.522;2022-07-22T05:41:04;5.43;;;2.33;;
28762;SDS011;15918;51.270;6.522;2022-07-22T05:43:30;5.93;;;2.50;;
28762;SDS011;15918;51.270;6.522;2022-07-22T05:45:55;6.63;;;2.22;;
28762;SDS011;15918;51.270;6.522;2022-07-22T05:48:21;4.03;;;1.73;;
28762;SDS011;15918;51.270;6.522;2022-07-22T05:50:47;6.30;;;2.03;;
28762;SDS011;15918;51.270;6.522;2022-07-22T05:53:12;5.28;;;2.22;;
28762;SDS011;15918;51.270;6.522;2022-07-22T05:55:38;6.40;;;2.45;;
28762;SDS011;15918;51.270;6.522;2022-07-22T05:58:03;4.07;;;2.22;;
28762;SDS011;15918;51.270;6.522;2022-07-22T06:00:29;4.03;;;2.00;;
28762;SDS011;15918;51.270;6.522;2022-07-22T06:02:55;4.68;;;2.22;;
28762;SDS011;15918;51.270;6.522;2022-07-22T06:05:20;6.50;;;2.25;;
28762;SDS011;15918;51.270;6.522;2022-07-22T06:07:46;10.75;;;2.50;;
28762;SDS011;15918;51.270;6.522;2022-07-22T06:10:12;5.43;;;2.35;;
28762;SDS011;15918;51.270;6.522;2022-07-22T06:12:38;5.05;;;2.35;;
28762;SDS011;15918;51.270;6.522;2022-07-22T06:15:04;4.00;;;1.90;;
28762;SDS011;15918;51.270;6.522;2022-07-22T06:17:30;7.45;;;2.42;;
28762;SDS011;15918;51.270;6.522;2022-07-22T06:19:56;4.93;;;2.08;;
28762;SDS011;15918;51.270;6.522;2022-07-22T06:22:21;4.95;;;2.50;;
28762;SDS011;15918;51.270;6.522;2022-07-22T06:24:47;4.15;;;2.05;;
28762;SDS011;15918;51.270;6.522;2022-07-22T06:27:13;7.78;;;2.90;;
28762;SDS011;15918;51.270;6.522;2022-07-22T06:29:39;5.57;;;2.42;;
28762;SDS011;15918;51.270;6.522;2022-07-22T06:32:06;4.10;;;2.40;;
28762;SDS011;15918;51.270;6.522;2022-07-22T06:34:31;4.03;;;2.55;;
28762;SDS011;15918;51.270;6.522;2022-07-22T06:36:57;4.38;;;2.20;;
28762;SDS011;15918;51.270;6.522;2022-07-22T06:39:22;5.13;;;2.42;;
28762;SDS011;15918;51.270;6.522;2022-07-22T06:41:48;6.63;;;2.35;;
28762;SDS011;15918;51.270;6.522;2022-07-22T06:44:13;4.82;;;2.15;;
28762;SDS011;15918;51.270;6.522;2022-07-22T06:46:39;8.02;;;3.30;;
28762;SDS011;15918;51.270;6.522;2022-07-22T06:49:05;5.40;;;2.50;;
28762;SDS011;15918;51.270;6.522;2022-07-22T06:51:31;6.45;;;2.03;;
28762;SDS011;15918;51.270;6.522;2022-07-22T06:53:57;5.55;;;2.50;;
28762;SDS011;15918;51.270;6.522;2022-07-22T06:56:23;7.88;;;2.72;;
28762;SDS011;15918;51.270;6.522;2022-07-22T06:58:48;4.35;;;1.98;;
28762;SDS011;15918;51.270;6.522;2022-07-22T07:01:17;5.93;;;2.20;;
28762;SDS011;15918;51.270;6.522;2022-07-22T07:03:46;7.07;;;2.28;;
28762;SDS011;15918;51.270;6.522;2022-07-22T07:06:12;7.13;;;2.53;;
28762;SDS011;15918;51.270;6.522;2022-07-22T07:08:38;8.32;;;2.85;;
28762;SDS011;15918;51.270;6.522;2022-07-22T07:11:04;4.18;;;1.80;;
28762;SDS011;15918;51.270;6.522;2022-07-22T07:13:30;4.63;;;2.47;;
28762;SDS011;15918;51.270;6.522;2022-07-22T07:15:56;4.63;;;2.20;;
28762;SDS011;15918;51.270;6.522;2022-07-22T07:18:22;6.80;;;2.55;;
28762;SDS011;15918;51.270;6.522;2022-07-22T07:20:48;4.50;;;2.38;;
28762;SDS011;15918;51.270;6.522;2022-07-22T07:23:13;6.95;;;2.40;;
28762;SDS011;15918;51.270;6.522;2022-07-22T07:25:39;4.97;;;2.30;;
28762;SDS011;15918;51.270;6.522;2022-07-22T07:28:05;5.47;;;2.20;;
28762;SDS011;15918;51.270;6.522;2022-07-22T07:30:31;5.50;;;2.58;;
28762;SDS011;15918;51.270;6.522;2022-07-22T07:32:56;6.05;;;2.00;;
28762;SDS011;15918;51.270;6.522;2022-07-22T07:35:22;7.13;;;2.50;;
28762;SDS011;15918;51.270;6.522;2022-07-22T07:37:48;11.60;;;2.85;;
28762;SDS011;15918;51.270;6.522;2022-07-22T07:40:13;5.07;;;2.45;;
28762;SDS011;15918;51.270;6.522;2022-07-22T07:42:39;4.15;;;2.17;;
28762;SDS011;15918;51.270;6.522;2022-07-22T07:45:05;6.25;;;2.22;;
28762;SDS011;15918;51.270;6.522;2022-07-22T07:47:34;6.88;;;2.47;;
28762;SDS011;15918;51.270;6.522;2022-07-22T07:49:59;10.95;;;2.50;;
28762;SDS011;15918;51.270;6.522;2022-07-22T07:52:27;8.40;;;2.65;;
28762;SDS011;15918;51.270;6.522;2022-07-22T07:54:53;7.55;;;1.90;;
28762;SDS011;15918;51.270;6.522;2022-07-22T07:57:20;5.75;;;2.75;;
28762;SDS011;15918;51.270;6.522;2022-07-22T07:59:46;4.20;;;2.17;;
28762;SDS011;15918;51.270;6.522;2022-07-22T08:02:12;6.82;;;2.00;;
28762;SDS011;15918;51.270;6.522;2022-07-22T08:04:38;5.30;;;2.60;;
28762;SDS011;15918;51.270;6.522;2022-07-22T08:07:04;5.97;;;2.00;;
28762;SDS011;15918;51.270;6.522;2022-07-22T08:09:31;5.32;;;2.25;;
28762;SDS011;15918;51.270;6.522;2022-07-22T08:11:57;7.75;;;2.15;;
28762;SDS011;15918;51.270;6.522;2022-07-22T08:14:23;8.23;;;2.47;;
28762;SDS011;15918;51.270;6.522;2022-07-22T08:16:49;6.75;;;2.55;;
28762;SDS011;15918;51.270;6.522;2022-07-22T08:19:15;5.60;;;2.15;;
28762;SDS011;15918;51.270;6.522;2022-07-22T08:21:41;4.65;;;2.30;;
28762;SDS011;15918;51.270;6.522;2022-07-22T08:24:08;4.90;;;2.10;;
28762;SDS011;15918;51.270;6.522;2022-07-22T08:26:35;4.70;;;2.70;;
28762;SDS011;15918;51.270;6.522;2022-07-22T08:29:00;4.35;;;2.30;;
28762;SDS011;15918;51.270;6.522;2022-07-22T08:31:29;4.47;;;1.88;;
28762;SDS011;15918;51.270;6.522;2022-07-22T08:33:59;6.45;;;2.53;;
28762;SDS011;15918;51.270;6.522;2022-07-22T08:36:25;6.35;;;2.25;;
28762;SDS011;15918;51.270;6.522;2022-07-22T08:38:51;8.55;;;4.13;;
28762;SDS011;15918;51.270;6.522;2022-07-22T08:41:18;11.02;;;6.00;;
28762;SDS011;15918;51.270;6.522;2022-07-22T08:43:45;9.65;;;6.10;;
28762;SDS011;15918;51.270;6.522;2022-07-22T08:46:11;11.60;;;7.05;;
28762;SDS011;15918;51.270;6.522;2022-07-22T08:48:38;8.75;;;7.43;;
28762;SDS011;15918;51.270;6.522;2022-07-22T08:51:04;15.32;;;9.50;;
28762;SDS011;15918;51.270;6.522;2022-07-22T08:53:30;13.98;;;8.57;;
28762;SDS011;15918;51.270;6.522;2022-07-22T08:55:56;17.77;;;10.60;;
28762;SDS011;15918;51.270;6.522;2022-07-22T08:58:23;16.48;;;10.85;;
28762;SDS011;15918;51.270;6.522;2022-07-22T09:03:52;17.75;;;13.75;;
28762;SDS011;15918;51.270;6.522;2022-07-22T09:06:20;19.00;;;14.50;;
28762;SDS011;15918;51.270;6.522;2022-07-22T09:08:57;19.67;;;15.38;;
28762;SDS011;15918;51.270;6.522;2022-07-22T09:11:27;20.90;;;16.77;;
28762;SDS011;15918;51.270;6.522;2022-07-22T09:13:53;19.42;;;14.70;;
28762;SDS011;15918;51.270;6.522;2022-07-22T09:16:39;17.88;;;14.60;;
28762;SDS011;15918;51.270;6.522;2022-07-22T09:19:06;20.95;;;15.10;;
28762;SDS011;15918;51.270;6.522;2022-07-22T09:21:34;17.00;;;14.98;;
28762;SDS011;15918;51.270;6.522;2022-07-22T09:24:02;21.02;;;15.90;;
28762;SDS011;15918;51.270;6.522;2022-07-22T09:26:32;18.25;;;14.63;;
28762;SDS011;15918;51.270;6.522;2022-07-22T09:29:02;18.10;;;14.65;;
28762;SDS011;15918;51.270;6.522;2022-07-22T09:31:36;18.75;;;15.57;;
28762;SDS011;15918;51.270;6.522;2022-07-22T09:34:02;21.92;;;15.50;;
28762;SDS011;15918;51.270;6.522;2022-07-22T09:36:29;19.35;;;15.30;;
28762;SDS011;15918;51.270;6.522;2022-07-22T09:38:55;19.27;;;13.65;;
28762;SDS011;15918;51.270;6.522;2022-07-22T09:41:21;19.15;;;14.05;;
28762;SDS011;15918;51.270;6.522;2022-07-22T09:43:47;17.50;;;14.15;;
28762;SDS011;15918;51.270;6.522;2022-07-22T09:46:13;18.55;;;14.07;;
28762;SDS011;15918;51.270;6.522;2022-07-22T09:48:39;17.15;;;13.75;;
28762;SDS011;15918;51.270;6.522;2022-07-22T09:51:05;19.25;;;13.60;;
28762;SDS011;15918;51.270;6.522;2022-07-22T09:53:32;18.55;;;13.73;;
28762;SDS011;15918;51.270;6.522;2022-07-22T09:55:59;20.40;;;15.07;;
28762;SDS011;15918;51.270;6.522;2022-07-22T09:58:26;17.17;;;14.13;;
28762;SDS011;15918;51.270;6.522;2022-07-22T10:00:52;18.13;;;14.27;;
28762;SDS011;15918;51.270;6.522;2022-07-22T10:03:26;16.35;;;13.65;;
28762;SDS011;15918;51.270;6.522;2022-07-22T10:05:54;16.60;;;13.70;;
28762;SDS011;15918;51.270;6.522;2022-07-22T10:08:21;19.13;;;13.30;;
28762;SDS011;15918;51.270;6.522;2022-07-22T10:10:48;17.05;;;13.18;;
28762;SDS011;15918;51.270;6.522;2022-07-22T10:13:14;18.33;;;13.60;;
28762;SDS011;15918;51.270;6.522;2022-07-22T10:15:43;16.27;;;12.85;;
28762;SDS011;15918;51.270;6.522;2022-07-22T10:18:16;16.40;;;12.93;;
28762;SDS011;15918;51.270;6.522;2022-07-22T10:20:44;15.40;;;13.30;;
28762;SDS011;15918;51.270;6.522;2022-07-22T10:23:11;17.70;;;12.63;;
28762;SDS011;15918;51.270;6.522;2022-07-22T10:25:59;15.18;;;11.65;;
28762;SDS011;15918;51.270;6.522;2022-07-22T10:28:28;16.67;;;12.40;;
28762;SDS011;15918;51.270;6.522;2022-07-22T10:33:44;14.60;;;12.23;;
28762;SDS011;15918;51.270;6.522;2022-07-22T10:36:14;16.52;;;11.18;;
28762;SDS011;15918;51.270;6.522;2022-07-22T10:39:09;16.42;;;12.18;;
28762;SDS011;15918;51.270;6.522;2022-07-22T10:41:37;16.48;;;11.38;;
28762;SDS011;15918;51.270;6.522;2022-07-22T10:44:05;16.17;;;12.07;;
28762;SDS011;15918;51.270;6.522;2022-07-22T10:46:47;17.63;;;12.48;;
28762;SDS011;15918;51.270;6.522;2022-07-22T10:49:15;19.25;;;12.57;;
28762;SDS011;15918;51.270;6.522;2022-07-22T10:52:08;22.63;;;13.45;;
28762;SDS011;15918;51.270;6.522;2022-07-22T10:57:45;14.93;;;11.73;;
28762;SDS011;15918;51.270;6.522;2022-07-22T11:00:11;16.77;;;11.90;;
28762;SDS011;15918;51.270;6.522;2022-07-22T11:02:37;15.75;;;11.57;;
28762;SDS011;15918;51.270;6.522;2022-07-22T11:05:04;16.88;;;12.98;;
28762;SDS011;15918;51.270;6.522;2022-07-22T11:07:30;16.48;;;12.18;;
28762;SDS011;15918;51.270;6.522;2022-07-22T11:10:08;15.48;;;11.80;;
28762;SDS011;15918;51.270;6.522;2022-07-22T11:12:34;14.27;;;11.70;;
28762;SDS011;15918;51.270;6.522;2022-07-22T11:15:00;14.85;;;12.10;;
28762;SDS011;15918;51.270;6.522;2022-07-22T11:17:27;12.98;;;11.63;;
28762;SDS011;15918;51.270;6.522;2022-07-22T11:19:53;12.40;;;11.02;;
28762;SDS011;15918;51.270;6.522;2022-07-22T11:22:18;15.57;;;11.02;;
28762;SDS011;15918;51.270;6.522;2022-07-22T11:24:47;14.57;;;10.93;;
28762;SDS011;15918;51.270;6.522;2022-07-22T11:27:17;14.52;;;10.77;;
28762;SDS011;15918;51.270;6.522;2022-07-22T11:29:47;15.13;;;9.95;;
28762;SDS011;15918;51.270;6.522;2022-07-22T11:32:14;12.10;;;9.68;;
28762;SDS011;15918;51.270;6.522;2022-07-22T11:34:41;12.35;;;9.23;;
28762;SDS011;15918;51.270;6.522;2022-07-22T11:37:10;11.65;;;8.70;;
28762;SDS011;15918;51.270;6.522;2022-07-22T11:39:39;16.27;;;8.32;;
28762;SDS011;15918;51.270;6.522;2022-07-22T11:42:05;10.70;;;9.15;;
28762;SDS011;15918;51.270;6.522;2022-07-22T11:44:33;12.23;;;8.30;;
28762;SDS011;15918;51.270;6.522;2022-07-22T11:47:00;10.55;;;8.15;;
28762;SDS011;15918;51.270;6.522;2022-07-22T11:49:28;12.93;;;7.68;;
28762;SDS011;15918;51.270;6.522;2022-07-22T11:51:59;13.15;;;8.00;;
28762;SDS011;15918;51.270;6.522;2022-07-22T11:54:25;9.18;;;7.07;;
28762;SDS011;15918;51.270;6.522;2022-07-22T11:56:51;9.38;;;7.60;;
28762;SDS011;15918;51.270;6.522;2022-07-22T11:59:17;10.35;;;7.75;;
28762;SDS011;15918;51.270;6.522;2022-07-22T12:01:44;10.70;;;7.15;;
28762;SDS011;15918;51.270;6.522;2022-07-22T12:04:13;9.90;;;6.72;;
28762;SDS011;15918;51.270;6.522;2022-07-22T12:06:43;10.98;;;6.65;;
28762;SDS011;15918;51.270;6.522;2022-07-22T12:09:10;8.43;;;6.45;;
28762;SDS011;15918;51.270;6.522;2022-07-22T12:11:42;10.70;;;6.40;;
28762;SDS011;15918;51.270;6.522;2022-07-22T12:16:43;6.90;;;5.13;;
28762;SDS011;15918;51.270;6.522;2022-07-22T12:19:17;7.95;;;6.10;;
28762;SDS011;15918;51.270;6.522;2022-07-22T12:21:50;8.63;;;5.78;;
28762;SDS011;15918;51.270;6.522;2022-07-22T12:29:40;6.78;;;5.38;;
28762;SDS011;15918;51.270;6.522;2022-07-22T12:32:14;7.85;;;5.40;;
28762;SDS011;15918;51.270;6.522;2022-07-22T12:34:57;8.35;;;5.63;;
28762;SDS011;15918;51.270;6.522;2022-07-22T12:37:26;6.10;;;4.68;;
28762;SDS011;15918;51.270;6.522;2022-07-22T12:39:57;5.10;;;4.60;;
28762;SDS011;15918;51.270;6.522;2022-07-22T12:42:27;6.95;;;5.20;;
28762;SDS011;15918;51.270;6.522;2022-07-22T12:48:08;9.15;;;6.35;;
28762;SDS011;15918;51.270;6.522;2022-07-22T12:50:38;8.10;;;5.45;;
28762;SDS011;15918;51.270;6.522;2022-07-22T12:53:09;8.45;;;6.22;;
28762;SDS011;15918;51.270;6.522;2022-07-22T12:55:49;10.63;;;6.43;;
28762;SDS011;15918;51.270;6.522;2022-07-22T12:58:17;7.75;;;6.57;;
28762;SDS011;15918;51.270;6.522;2022-07-22T13:00:43;7.00;;;6.03;;
28762;SDS011;15918;51.270;6.522;2022-07-22T13:03:11;7.10;;;5.95;;
28762;SDS011;15918;51.270;6.522;2022-07-22T13:05:36;9.02;;;5.43;;
28762;SDS011;15918;51.270;6.522;2022-07-22T13:08:02;7.78;;;5.50;;
28762;SDS011;15918;51.270;6.522;2022-07-22T13:10:29;6.03;;;5.35;;
28762;SDS011;15918;51.270;6.522;2022-07-22T13:12:54;8.57;;;5.63;;
28762;SDS011;15918;51.270;6.522;2022-07-22T13:15:20;9.65;;;5.90;;
28762;SDS011;15918;51.270;6.522;2022-07-22T13:17:47;7.78;;;5.60;;
28762;SDS011;15918;51.270;6.522;2022-07-22T13:20:14;7.93;;;5.10;;
28762;SDS011;15918;51.270;6.522;2022-07-22T13:22:42;7.30;;;4.45;;
28762;SDS011;15918;51.270;6.522;2022-07-22T13:25:08;5.55;;;4.65;;
28762;SDS011;15918;51.270;6.522;2022-07-22T13:27:34;6.32;;;4.95;;
28762;SDS011;15918;51.270;6.522;2022-07-22T13:30:00;7.72;;;4.43;;
28762;SDS011;15918;51.270;6.522;2022-07-22T13:32:26;6.57;;;4.38;;
28762;SDS011;15918;51.270;6.522;2022-07-22T13:35:06;8.18;;;4.50;;
28762;SDS011;15918;51.270;6.522;2022-07-22T13:37:33;6.50;;;4.60;;
28762;SDS011;15918;51.270;6.522;2022-07-22T13:40:00;5.88;;;4.22;;
28762;SDS011;15918;51.270;6.522;2022-07-22T13:42:26;6.18;;;4.13;;
28762;SDS011;15918;51.270;6.522;2022-07-22T13:44:51;5.00;;;3.35;;
28762;SDS011;15918;51.270;6.522;2022-07-22T13:47:19;7.50;;;3.80;;
28762;SDS011;15918;51.270;6.522;2022-07-22T13:49:45;7.40;;;3.25;;
28762;SDS011;15918;51.270;6.522;2022-07-22T13:52:12;4.35;;;3.53;;
28762;SDS011;15918;51.270;6.522;2022-07-22T13:54:38;3.88;;;2.95;;
28762;SDS011;15918;51.270;6.522;2022-07-22T13:57:05;6.43;;;3.42;;
28762;SDS011;15918;51.270;6.522;2022-07-22T13:59:32;3.95;;;3.38;;
28762;SDS011;15918;51.270;6.522;2022-07-22T14:01:58;5.63;;;3.28;;
28762;SDS011;15918;51.270;6.522;2022-07-22T14:04:24;5.72;;;3.17;;
28762;SDS011;15918;51.270;6.522;2022-07-22T14:06:50;4.93;;;3.47;;
28762;SDS011;15918;51.270;6.522;2022-07-22T14:09:16;5.80;;;3.05;;
28762;SDS011;15918;51.270;6.522;2022-07-22T14:11:42;5.75;;;2.95;;
28762;SDS011;15918;51.270;6.522;2022-07-22T14:14:07;6.72;;;3.20;;
28762;SDS011;15918;51.270;6.522;2022-07-22T14:16:34;3.47;;;2.90;;
28762;SDS011;15918;51.270;6.522;2022-07-22T14:19:01;4.35;;;2.85;;
28762;SDS011;15918;51.270;6.522;2022-07-22T14:21:30;3.78;;;2.90;;
28762;SDS011;15918;51.270;6.522;2022-07-22T14:23:56;4.40;;;3.25;;
28762;SDS011;15918;51.270;6.522;2022-07-22T14:26:22;4.38;;;2.60;;
28762;SDS011;15918;51.270;6.522;2022-07-22T14:28:48;5.03;;;2.67;;
28762;SDS011;15918;51.270;6.522;2022-07-22T14:31:14;3.95;;;2.70;;
28762;SDS011;15918;51.270;6.522;2022-07-22T14:33:40;5.05;;;3.10;;
28762;SDS011;15918;51.270;6.522;2022-07-22T14:36:06;6.47;;;3.25;;
28762;SDS011;15918;51.270;6.522;2022-07-22T14:38:31;4.55;;;2.80;;
28762;SDS011;15918;51.270;6.522;2022-07-22T14:40:57;7.07;;;2.65;;
28762;SDS011;15918;51.270;6.522;2022-07-22T14:43:23;3.28;;;2.58;;
28762;SDS011;15918;51.270;6.522;2022-07-22T14:45:49;4.20;;;2.80;;
28762;SDS011;15918;51.270;6.522;2022-07-22T14:48:14;6.47;;;3.00;;
28762;SDS011;15918;51.270;6.522;2022-07-22T14:50:40;4.43;;;2.60;;
28762;SDS011;15918;51.270;6.522;2022-07-22T14:53:06;7.25;;;2.95;;
28762;SDS011;15918;51.270;6.522;2022-07-22T14:55:31;3.80;;;2.80;;
28762;SDS011;15918;51.270;6.522;2022-07-22T14:57:57;4.13;;;2.92;;